createdAt,value
2019-05-01T00:01:22.087Z,10.40
2019-05-01T00:04:08.606Z,10.37
2019-05-01T00:06:46.546Z,10.42
2019-05-01T00:09:18.357Z,10.53
2019-05-01T00:11:49.748Z,10.36
2019-05-01T00:14:21.233Z,10.33
2019-05-01T00:16:52.865Z,10.33
2019-05-01T00:19:24.224Z,10.38
2019-05-01T00:21:55.915Z,10.54
2019-05-01T00:24:27.513Z,10.54
2019-05-01T00:26:59.248Z,10.61
2019-05-01T00:29:31.093Z,10.66
2019-05-01T00:32:03.021Z,10.71
2019-05-01T00:34:34.688Z,10.74
2019-05-01T00:37:06.101Z,10.76
2019-05-01T00:39:37.716Z,10.88
2019-05-01T00:42:09.282Z,10.92
2019-05-01T00:44:41.214Z,10.79
2019-05-01T00:47:12.637Z,10.74
2019-05-01T00:49:44.286Z,10.84
2019-05-01T00:52:15.801Z,10.87
2019-05-01T00:54:48.698Z,10.88
2019-05-01T00:57:49.223Z,10.88
2019-05-01T01:00:42.583Z,11.00
2019-05-01T01:03:06.580Z,11.01
2019-05-01T01:05:38.196Z,11.18
2019-05-01T01:08:09.637Z,11.31
2019-05-01T01:10:41.029Z,11.34
2019-05-01T01:13:12.718Z,11.33
2019-05-01T01:15:44.290Z,11.37
2019-05-01T01:18:15.749Z,11.33
2019-05-01T01:20:47.650Z,11.44
2019-05-01T01:23:19.282Z,11.27
2019-05-01T01:25:51.014Z,11.06
2019-05-01T01:28:23.349Z,11.02
2019-05-01T01:30:56.420Z,11.00
2019-05-01T01:33:28.329Z,11.01
2019-05-01T01:35:59.884Z,11.02
2019-05-01T01:38:31.298Z,11.13
2019-05-01T01:41:03.735Z,11.26
2019-05-01T01:43:47.079Z,11.17
2019-05-01T01:46:20.655Z,11.17
2019-05-01T01:48:52.305Z,11.18
2019-05-01T01:51:24.235Z,11.18
2019-05-01T01:53:56.075Z,11.13
2019-05-01T01:56:27.903Z,11.11
2019-05-01T01:58:59.431Z,11.11
2019-05-01T02:01:50.028Z,11.09
2019-05-01T02:04:34.452Z,11.03
2019-05-01T02:07:05.963Z,11.07
2019-05-01T02:09:38.723Z,11.11
2019-05-01T02:12:10.289Z,11.11
2019-05-01T02:14:41.949Z,11.24
2019-05-01T02:17:13.729Z,11.17
2019-05-01T02:19:45.059Z,11.17
2019-05-01T02:22:16.531Z,11.22
2019-05-01T02:24:47.924Z,11.28
2019-05-01T02:27:25.310Z,11.23
2019-05-01T02:29:59.602Z,11.23
2019-05-01T02:32:30.924Z,11.27
2019-05-01T02:35:02.757Z,11.22
2019-05-01T02:37:35.374Z,11.16
2019-05-01T02:40:27.056Z,11.20
2019-05-01T02:43:00.128Z,11.17
2019-05-01T02:45:32.638Z,11.24
2019-05-01T02:48:05.621Z,11.23
2019-05-01T02:50:39.552Z,11.22
2019-05-01T02:53:11.495Z,11.17
2019-05-01T02:55:48.970Z,11.17
2019-05-01T02:58:20.585Z,11.19
2019-05-01T03:00:52.059Z,11.17
2019-05-01T03:03:23.768Z,11.19
2019-05-01T03:05:55.474Z,11.17
2019-05-01T03:08:27.494Z,11.12
2019-05-01T03:10:59.104Z,11.12
2019-05-01T03:13:32.047Z,11.20
2019-05-01T03:16:04.691Z,11.20
2019-05-01T03:18:40.012Z,11.20
2019-05-01T03:21:39.927Z,11.20
2019-05-01T03:24:18.505Z,11.15
2019-05-01T03:26:50.643Z,11.17
2019-05-01T03:29:22.511Z,11.24
2019-05-01T03:32:15.613Z,11.20
2019-05-01T03:34:28.590Z,11.25
2019-05-01T03:37:00.436Z,11.20
2019-05-01T03:39:32.078Z,11.14
2019-05-01T03:42:03.831Z,11.12
2019-05-01T03:44:35.570Z,11.23
2019-05-01T03:47:07.225Z,11.20
2019-05-01T03:49:39.095Z,11.37
2019-05-01T03:52:10.659Z,11.33
2019-05-01T03:54:42.266Z,11.37
2019-05-01T03:57:14.167Z,11.49
2019-05-01T03:59:46.174Z,11.40
2019-05-01T04:02:43.583Z,11.37
2019-05-01T04:05:15.386Z,11.43
2019-05-01T04:07:47.705Z,11.25
2019-05-01T04:10:19.539Z,11.08
2019-05-01T04:12:51.195Z,11.08
2019-05-01T04:15:23.087Z,11.02
2019-05-01T04:17:56.564Z,11.00
2019-05-01T04:20:29.722Z,11.08
2019-05-01T04:23:01.661Z,11.12
2019-05-01T04:25:33.262Z,11.29
2019-05-01T04:28:23.802Z,11.39
2019-05-01T04:31:02.872Z,11.45
2019-05-01T04:33:35.691Z,11.62
2019-05-01T04:36:14.461Z,11.63
2019-05-01T04:38:46.292Z,11.69
2019-05-01T04:41:17.877Z,11.88
2019-05-01T04:43:49.702Z,11.94
2019-05-01T04:46:21.205Z,12.00
2019-05-01T04:48:53.124Z,12.15
2019-05-01T04:51:24.724Z,12.38
2019-05-01T04:53:56.462Z,12.38
2019-05-01T04:56:28.045Z,12.43
2019-05-01T04:58:59.921Z,12.33
2019-05-01T05:01:50.126Z,12.51
2019-05-01T05:04:21.606Z,12.71
2019-05-01T05:06:53.989Z,12.73
2019-05-01T05:09:45.517Z,12.85
2019-05-01T05:12:52.365Z,12.69
2019-05-01T05:15:47.081Z,12.69
2019-05-01T05:18:18.225Z,12.67
2019-05-01T05:20:50.153Z,12.54
2019-05-01T05:23:21.364Z,12.59
2019-05-01T05:25:53.520Z,12.42
2019-05-01T05:28:26.461Z,12.37
2019-05-01T05:30:59.895Z,12.63
2019-05-01T05:33:34.655Z,13.02
2019-05-01T05:36:08.343Z,13.34
2019-05-01T05:39:03.558Z,14.26
2019-05-01T05:41:35.533Z,14.79
2019-05-01T05:44:07.677Z,15.52
2019-05-01T05:46:39.333Z,15.69
2019-05-01T05:49:10.901Z,16.44
2019-05-01T05:51:59.450Z,16.44
2019-05-01T05:55:00.085Z,17.34
2019-05-01T05:57:41.763Z,17.30
2019-05-01T06:00:25.033Z,17.51
2019-05-01T06:03:12.853Z,17.35
2019-05-01T06:06:06.139Z,17.10
2019-05-01T06:08:40.249Z,16.92
2019-05-01T06:11:34.024Z,17.41
2019-05-01T06:14:38.376Z,17.98
2019-05-01T06:17:28.436Z,17.54
2019-05-01T06:20:15.974Z,18.07
2019-05-01T06:23:20.472Z,18.08
2019-05-01T06:25:54.210Z,18.08
2019-05-01T06:28:29.609Z,18.35
2019-05-01T06:31:22.980Z,18.47
2019-05-01T06:33:52.990Z,18.18
2019-05-01T06:36:24.943Z,18.95
2019-05-01T06:38:56.291Z,18.80
2019-05-01T06:41:33.717Z,18.87
2019-05-01T06:44:09.630Z,18.68
2019-05-01T06:47:03.393Z,18.30
2019-05-01T06:49:39.568Z,18.30
2019-05-01T06:52:11.848Z,18.81
2019-05-01T06:54:43.446Z,18.94
2019-05-01T06:57:14.680Z,18.64
2019-05-01T06:59:47.073Z,19.11
2019-05-01T07:02:19.504Z,18.74
2019-05-01T07:04:51.708Z,18.94
2019-05-01T07:07:25.805Z,19.02
2019-05-01T07:09:58.328Z,19.10
2019-05-01T07:12:31.593Z,18.72
2019-05-01T07:15:05.293Z,19.27
2019-05-01T07:17:37.360Z,19.67
2019-05-01T07:20:28.222Z,19.70
2019-05-01T07:22:59.338Z,18.99
2019-05-01T07:25:34.646Z,19.58
2019-05-01T07:28:03.718Z,19.44
2019-05-01T07:30:54.733Z,19.83
2019-05-01T07:33:26.201Z,19.30
2019-05-01T07:35:57.448Z,18.87
2019-05-01T07:38:28.664Z,18.08
2019-05-01T07:41:03.389Z,18.68
2019-05-01T07:43:54.821Z,19.04
2019-05-01T07:46:36.449Z,18.77
2019-05-01T07:49:07.891Z,18.38
2019-05-01T07:51:42.380Z,18.94
2019-05-01T07:54:14.578Z,19.55
2019-05-01T07:56:45.894Z,19.38
2019-05-01T07:59:16.989Z,19.65
2019-05-01T08:02:08.592Z,19.77
2019-05-01T08:04:39.849Z,19.74
2019-05-01T08:07:10.838Z,19.00
2019-05-01T08:09:45.837Z,19.24
2019-05-01T08:12:18.996Z,19.88
2019-05-01T08:14:52.394Z,20.14
2019-05-01T08:17:23.159Z,20.17
2019-05-01T08:20:09.932Z,20.33
2019-05-01T08:22:40.351Z,19.76
2019-05-01T08:25:11.611Z,19.69
2019-05-01T08:28:00.650Z,19.17
2019-05-01T08:30:40.401Z,18.64
2019-05-01T08:33:49.946Z,18.35
2019-05-01T08:36:21.185Z,18.44
2019-05-01T08:38:52.256Z,18.21
2019-05-01T08:41:27.019Z,17.84
2019-05-01T08:43:56.563Z,18.19
2019-05-01T08:46:38.569Z,18.20
2019-05-01T08:49:20.243Z,18.22
2019-05-01T08:52:04.889Z,19.09
2019-05-01T08:54:34.862Z,18.79
2019-05-01T08:57:08.030Z,17.94
2019-05-01T08:59:39.505Z,17.80
2019-05-01T09:02:10.598Z,18.24
2019-05-01T09:04:41.741Z,18.38
2019-05-01T09:07:14.620Z,18.33
2019-05-01T09:09:47.460Z,18.50
2019-05-01T09:12:18.594Z,18.25
2019-05-01T09:14:51.309Z,18.70
2019-05-01T09:17:22.761Z,18.88
2019-05-01T09:19:53.951Z,19.11
2019-05-01T09:22:25.550Z,18.95
2019-05-01T09:24:59.969Z,19.82
2019-05-01T09:27:44.957Z,20.02
2019-05-01T09:30:26.896Z,19.91
2019-05-01T09:32:58.227Z,20.23
2019-05-01T09:35:30.859Z,20.63
2019-05-01T09:38:02.586Z,20.81
2019-05-01T09:40:34.205Z,20.93
2019-05-01T09:43:05.736Z,21.31
2019-05-01T09:45:37.053Z,21.46
2019-05-01T09:48:08.963Z,21.75
2019-05-01T09:50:44.657Z,21.75
2019-05-01T09:53:41.271Z,21.88
2019-05-01T09:56:15.621Z,21.44
2019-05-01T09:58:46.547Z,21.26
2019-05-01T10:01:17.805Z,20.68
2019-05-01T10:03:49.372Z,20.90
2019-05-01T10:06:21.683Z,20.95
2019-05-01T10:08:53.010Z,21.49
2019-05-01T10:11:24.087Z,21.95
2019-05-01T10:13:58.517Z,22.34
2019-05-01T10:16:27.979Z,22.44
2019-05-01T10:18:59.246Z,22.40
2019-05-01T10:21:30.215Z,22.56
2019-05-01T10:24:01.403Z,23.11
2019-05-01T10:26:34.054Z,22.94
2019-05-01T10:29:29.970Z,22.71
2019-05-01T10:32:21.698Z,23.03
2019-05-01T10:34:57.250Z,23.41
2019-05-01T10:37:33.209Z,23.58
2019-05-01T10:40:00.857Z,22.92
2019-05-01T10:42:33.467Z,22.97
2019-05-01T10:45:04.945Z,22.27
2019-05-01T10:47:36.229Z,22.06
2019-05-01T10:50:07.476Z,21.63
2019-05-01T10:52:38.754Z,21.47
2019-05-01T10:55:09.947Z,22.03
2019-05-01T10:57:42.207Z,22.62
2019-05-01T11:00:13.775Z,22.23
2019-05-01T11:02:44.745Z,22.51
2019-05-01T11:05:15.913Z,22.68
2019-05-01T11:07:47.285Z,22.95
2019-05-01T11:10:20.273Z,22.86
2019-05-01T11:12:51.296Z,22.29
2019-05-01T11:15:22.710Z,22.22
2019-05-01T11:17:54.007Z,22.35
2019-05-01T11:20:25.712Z,22.70
2019-05-01T11:22:57.009Z,23.10
2019-05-01T11:25:28.397Z,23.48
2019-05-01T11:27:59.709Z,23.21
2019-05-01T11:30:31.100Z,22.77
2019-05-01T11:33:24.032Z,23.41
2019-05-01T11:36:13.085Z,22.73
2019-05-01T11:38:55.281Z,23.20
2019-05-01T11:41:33.894Z,22.62
2019-05-01T11:44:05.676Z,22.77
2019-05-01T11:46:36.683Z,22.67
2019-05-01T11:49:08.521Z,22.09
2019-05-01T11:51:39.629Z,21.76
2019-05-01T11:54:12.075Z,21.79
2019-05-01T11:56:43.490Z,21.48
2019-05-01T11:59:15.484Z,21.54
2019-05-01T12:01:46.795Z,21.42
2019-05-01T12:04:17.735Z,21.26
2019-05-01T12:06:48.856Z,21.14
2019-05-01T12:09:20.023Z,21.24
2019-05-01T12:11:53.343Z,20.86
2019-05-01T12:14:24.533Z,20.61
2019-05-01T12:17:13.056Z,20.40
2019-05-01T12:19:44.095Z,20.45
2019-05-01T12:22:15.142Z,20.46
2019-05-01T12:24:46.369Z,20.52
2019-05-01T12:27:17.620Z,20.56
2019-05-01T12:29:48.968Z,20.51
2019-05-01T12:32:20.052Z,20.33
2019-05-01T12:34:51.166Z,20.49
2019-05-01T12:37:31.910Z,20.56
2019-05-01T12:40:03.156Z,20.71
2019-05-01T12:42:34.719Z,20.52
2019-05-01T12:45:07.082Z,20.38
2019-05-01T12:47:57.129Z,20.50
2019-05-01T12:50:28.502Z,20.25
2019-05-01T12:53:16.850Z,20.32
2019-05-01T12:56:09.779Z,20.18
2019-05-01T12:58:40.761Z,20.13
2019-05-01T13:01:12.048Z,20.11
2019-05-01T13:03:43.268Z,20.09
2019-05-01T13:06:14.654Z,20.17
2019-05-01T13:08:45.959Z,20.18
2019-05-01T13:11:17.094Z,20.20
2019-05-01T13:13:48.322Z,20.12
2019-05-01T13:16:19.483Z,20.08
2019-05-01T13:18:50.453Z,20.17
2019-05-01T13:21:21.535Z,20.21
2019-05-01T13:23:52.676Z,20.18
2019-05-01T13:26:55.116Z,20.08
2019-05-01T13:29:38.426Z,20.03
2019-05-01T13:32:19.281Z,20.11
2019-05-01T13:34:53.098Z,20.17
2019-05-01T13:37:24.140Z,20.04
2019-05-01T13:39:55.303Z,19.99
2019-05-01T13:42:26.344Z,19.96
2019-05-01T13:44:57.332Z,19.83
2019-05-01T13:47:28.410Z,19.57
2019-05-01T13:49:59.819Z,19.36
2019-05-01T13:52:30.921Z,19.30
2019-05-01T13:55:02.293Z,19.26
2019-05-01T13:57:33.226Z,19.23
2019-05-01T14:00:04.625Z,19.47
2019-05-01T14:02:37.357Z,19.26
2019-05-01T14:05:08.475Z,19.16
2019-05-01T14:07:39.765Z,19.35
2019-05-01T14:10:11.019Z,19.32
2019-05-01T14:12:42.076Z,19.22
2019-05-01T14:15:13.215Z,19.30
2019-05-01T14:17:44.713Z,19.30
2019-05-01T14:20:34.057Z,19.20
2019-05-01T14:23:22.190Z,19.26
2019-05-01T14:26:06.296Z,18.90
2019-05-01T14:28:37.565Z,18.70
2019-05-01T14:31:08.722Z,18.61
2019-05-01T14:33:39.801Z,18.55
2019-05-01T14:36:10.909Z,18.31
2019-05-01T14:38:42.253Z,18.30
2019-05-01T14:41:13.566Z,18.28
2019-05-01T14:43:44.692Z,18.42
2019-05-01T14:46:15.735Z,18.56
2019-05-01T14:48:47.074Z,18.66
2019-05-01T14:51:21.373Z,18.52
2019-05-01T14:53:50.835Z,18.60
2019-05-01T14:56:21.789Z,18.76
2019-05-01T14:58:52.775Z,18.77
2019-05-01T15:01:23.789Z,18.77
2019-05-01T15:03:55.073Z,18.76
2019-05-01T15:06:26.575Z,18.60
2019-05-01T15:08:57.874Z,18.63
2019-05-01T15:11:29.065Z,18.43
2019-05-01T15:14:22.723Z,18.28
2019-05-01T15:17:15.478Z,18.22
2019-05-01T15:19:51.622Z,18.23
2019-05-01T15:22:22.684Z,18.29
2019-05-01T15:24:53.878Z,18.33
2019-05-01T15:27:25.188Z,18.38
2019-05-01T15:29:56.315Z,18.41
2019-05-01T15:32:28.370Z,18.39
2019-05-01T15:34:59.550Z,18.29
2019-05-01T15:37:30.599Z,18.27
2019-05-01T15:40:11.768Z,18.17
2019-05-01T15:42:50.733Z,18.22
2019-05-01T15:45:21.980Z,18.12
2019-05-01T15:47:53.247Z,18.10
2019-05-01T15:50:24.635Z,18.22
2019-05-01T15:52:56.075Z,18.21
2019-05-01T15:55:27.742Z,18.22
2019-05-01T15:57:58.856Z,18.23
2019-05-01T16:00:30.140Z,18.11
2019-05-01T16:03:01.228Z,18.11
2019-05-01T16:05:32.469Z,17.98
2019-05-01T16:08:09.783Z,17.77
2019-05-01T16:10:42.706Z,17.77
2019-05-01T16:13:13.927Z,17.61
2019-05-01T16:15:45.284Z,17.55
2019-05-01T16:18:16.537Z,17.61
2019-05-01T16:20:47.777Z,17.61
2019-05-01T16:23:19.064Z,17.47
2019-05-01T16:25:50.310Z,17.30
2019-05-01T16:28:21.386Z,17.11
2019-05-01T16:30:52.636Z,16.95
2019-05-01T16:33:23.918Z,16.98
2019-05-01T16:35:55.311Z,17.02
2019-05-01T16:38:34.288Z,16.97
2019-05-01T16:41:07.539Z,16.97
2019-05-01T16:43:38.720Z,16.78
2019-05-01T16:46:09.941Z,16.76
2019-05-01T16:48:40.918Z,16.49
2019-05-01T16:51:12.079Z,16.39
2019-05-01T16:53:43.128Z,16.39
2019-05-01T16:56:14.328Z,16.47
2019-05-01T16:58:45.242Z,16.44
2019-05-01T17:01:44.375Z,16.33
2019-05-01T17:04:26.559Z,16.29
2019-05-01T17:07:09.071Z,16.29
2019-05-01T17:10:08.066Z,15.89
2019-05-01T17:12:49.829Z,15.89
2019-05-01T17:15:27.230Z,15.50
2019-05-01T17:17:58.471Z,15.50
2019-05-01T17:20:30.262Z,15.29
2019-05-01T17:23:02.152Z,15.25
2019-05-01T17:25:33.535Z,15.15
2019-05-01T17:28:08.143Z,15.03
2019-05-01T17:30:47.592Z,14.97
2019-05-01T17:33:20.836Z,14.80
2019-05-01T17:35:51.844Z,14.81
2019-05-01T17:38:23.129Z,14.70
2019-05-01T17:40:54.651Z,14.66
2019-05-01T17:43:25.951Z,14.60
2019-05-01T17:45:57.272Z,14.64
2019-05-01T17:48:33.222Z,14.40
2019-05-01T17:51:02.003Z,14.26
2019-05-01T17:53:33.038Z,14.11
2019-05-01T17:56:04.260Z,14.26
2019-05-01T17:58:35.472Z,14.25
2019-05-01T18:01:27.534Z,14.21
2019-05-01T18:04:16.072Z,14.20
2019-05-01T18:06:49.256Z,14.13
2019-05-01T18:09:20.244Z,14.00
2019-05-01T18:11:52.253Z,13.98
2019-05-01T18:14:24.014Z,13.84
2019-05-01T18:16:55.087Z,13.70
2019-05-01T18:19:26.105Z,13.74
2019-05-01T18:22:09.604Z,13.57
2019-05-01T18:25:15.131Z,13.52
2019-05-01T18:28:04.498Z,13.58
2019-05-01T18:30:40.613Z,13.56
2019-05-01T18:33:11.752Z,13.59
2019-05-01T18:35:44.950Z,13.56
2019-05-01T18:38:47.655Z,13.48
2019-05-01T18:41:39.328Z,13.36
2019-05-01T18:44:11.414Z,13.28
2019-05-01T18:46:42.753Z,13.30
2019-05-01T18:49:13.998Z,13.40
2019-05-01T18:51:45.251Z,13.31
2019-05-01T18:54:16.241Z,13.41
2019-05-01T18:56:47.322Z,13.37
2019-05-01T18:59:18.767Z,13.29
2019-05-01T19:01:49.919Z,13.28
2019-05-01T19:04:23.533Z,13.25
2019-05-01T19:06:54.117Z,13.28
2019-05-01T19:09:30.136Z,13.31
2019-05-01T19:11:58.802Z,13.30
2019-05-01T19:14:30.839Z,13.33
2019-05-01T19:17:02.105Z,13.18
2019-05-01T19:19:33.624Z,13.27
2019-05-01T19:22:06.314Z,13.34
2019-05-01T19:24:39.930Z,13.36
2019-05-01T19:27:14.222Z,13.39
2019-05-01T19:29:44.472Z,13.30
2019-05-01T19:32:16.618Z,13.40
2019-05-01T19:34:48.048Z,13.30
2019-05-01T19:37:22.072Z,13.34
2019-05-01T19:39:53.779Z,13.36
2019-05-01T19:42:24.808Z,13.29
2019-05-01T19:44:57.466Z,13.27
2019-05-01T19:47:28.875Z,13.16
2019-05-01T19:50:06.832Z,13.22
2019-05-01T19:52:38.001Z,13.25
2019-05-01T19:55:07.676Z,13.12
2019-05-01T19:57:40.003Z,13.07
2019-05-01T20:00:12.459Z,12.99
2019-05-01T20:02:43.682Z,13.07
2019-05-01T20:05:15.029Z,13.05
2019-05-01T20:07:46.260Z,13.00
2019-05-01T20:10:18.326Z,12.91
2019-05-01T20:12:49.793Z,12.95
2019-05-01T20:15:25.140Z,12.96
2019-05-01T20:17:54.093Z,13.08
2019-05-01T20:20:25.434Z,13.05
2019-05-01T20:22:56.483Z,13.05
2019-05-01T20:25:27.403Z,13.04
2019-05-01T20:27:58.659Z,13.12
2019-05-01T20:30:29.952Z,12.98
2019-05-01T20:33:02.256Z,13.00
2019-05-01T20:35:34.437Z,12.99
2019-05-01T20:38:05.945Z,12.97
2019-05-01T20:40:37.170Z,13.02
2019-05-01T20:43:08.441Z,13.05
2019-05-01T20:45:39.932Z,13.06
2019-05-01T20:48:11.413Z,13.04
2019-05-01T20:50:42.654Z,13.08
2019-05-01T20:53:13.935Z,13.07
2019-05-01T20:55:50.644Z,13.15
2019-05-01T20:58:22.843Z,13.13
2019-05-01T21:00:58.496Z,12.93
2019-05-01T21:03:29.870Z,12.97
2019-05-01T21:06:28.976Z,12.79
2019-05-01T21:09:13.110Z,12.71
2019-05-01T21:11:46.778Z,12.49
2019-05-01T21:14:20.062Z,12.53
2019-05-01T21:16:49.693Z,12.45
2019-05-01T21:19:20.671Z,12.55
2019-05-01T21:21:53.643Z,12.54
2019-05-01T21:24:25.835Z,12.56
2019-05-01T21:26:57.158Z,12.59
2019-05-01T21:29:28.508Z,12.65
2019-05-01T21:31:59.951Z,12.73
2019-05-01T21:34:33.323Z,12.69
2019-05-01T21:37:04.934Z,12.60
2019-05-01T21:39:35.953Z,12.68
2019-05-01T21:42:11.589Z,12.62
2019-05-01T21:44:40.306Z,12.62
2019-05-01T21:47:11.516Z,12.53
2019-05-01T21:49:43.000Z,12.44
2019-05-01T21:52:18.013Z,12.45
2019-05-01T21:54:50.124Z,12.25
2019-05-01T21:57:20.294Z,12.05
2019-05-01T21:59:51.732Z,11.95
2019-05-01T22:02:23.188Z,11.88
2019-05-01T22:04:54.552Z,11.80
2019-05-01T22:07:27.886Z,11.71
2019-05-01T22:09:59.634Z,11.61
2019-05-01T22:12:31.037Z,11.52
2019-05-01T22:15:10.464Z,11.42
2019-05-01T22:17:47.380Z,11.45
2019-05-01T22:20:23.139Z,11.27
2019-05-01T22:22:59.364Z,11.27
2019-05-01T22:25:35.128Z,11.22
2019-05-01T22:28:20.681Z,11.16
2019-05-01T22:31:03.016Z,11.13
2019-05-01T22:33:35.049Z,11.13
2019-05-01T22:36:06.994Z,11.10
2019-05-01T22:38:38.560Z,10.98
2019-05-01T22:41:11.748Z,10.98
2019-05-01T22:43:43.183Z,11.04
2019-05-01T22:46:27.976Z,11.03
2019-05-01T22:48:59.728Z,11.03
2019-05-01T22:51:30.979Z,10.93
2019-05-01T22:54:20.341Z,10.97
2019-05-01T22:56:52.114Z,11.01
2019-05-01T22:59:23.486Z,11.04
2019-05-01T23:01:58.244Z,11.01
2019-05-01T23:04:29.715Z,10.98
2019-05-01T23:07:01.367Z,11.08
2019-05-01T23:09:33.308Z,10.99
2019-05-01T23:12:05.059Z,10.99
2019-05-01T23:14:36.610Z,10.93
2019-05-01T23:17:29.703Z,10.91
2019-05-01T23:20:04.066Z,10.89
2019-05-01T23:22:34.623Z,10.88
2019-05-01T23:25:06.349Z,10.96
2019-05-01T23:27:37.961Z,11.02
2019-05-01T23:30:10.327Z,11.03
2019-05-01T23:32:41.823Z,11.06
2019-05-01T23:35:13.462Z,11.03
2019-05-01T23:37:44.841Z,11.06
2019-05-01T23:40:17.040Z,11.07
2019-05-01T23:42:52.844Z,11.17
2019-05-01T23:45:22.689Z,11.13
2019-05-01T23:47:54.239Z,11.12
2019-05-01T23:50:25.524Z,11.13
2019-05-01T23:52:57.228Z,11.14
2019-05-01T23:55:28.732Z,11.17
2019-05-01T23:58:00.289Z,11.15
